createdAt,value
2019-05-13T00:00:19.185Z,1025.93
2019-05-13T00:01:19.185Z,1025.88
2019-05-13T00:02:19.484Z,1025.90
2019-05-13T00:03:19.162Z,1025.86
2019-05-13T00:04:19.144Z,1025.91
2019-05-13T00:05:19.135Z,1025.87
2019-05-13T00:06:19.124Z,1025.90
2019-05-13T00:07:19.113Z,1025.96
2019-05-13T00:08:21.786Z,1025.93
2019-05-13T00:09:19.374Z,1025.95
2019-05-13T00:10:19.075Z,1025.96
2019-05-13T00:11:19.076Z,1025.97
2019-05-13T00:12:19.062Z,1025.94
2019-05-13T00:13:19.046Z,1025.97
2019-05-13T00:14:19.573Z,1025.97
2019-05-13T00:15:19.035Z,1025.98
2019-05-13T00:16:19.293Z,1026.00
2019-05-13T00:17:19.003Z,1025.97
2019-05-13T00:18:18.992Z,1025.96
2019-05-13T00:19:18.983Z,1025.96
2019-05-13T00:20:19.013Z,1025.96
2019-05-13T00:21:19.822Z,1025.97
2019-05-13T00:22:18.977Z,1025.98
2019-05-13T00:23:19.222Z,1025.95
2019-05-13T00:24:18.931Z,1026.00
2019-05-13T00:25:18.918Z,1025.94
2019-05-13T00:26:18.942Z,1025.96
2019-05-13T00:27:18.901Z,1025.97
2019-05-13T00:28:18.881Z,1026.00
2019-05-13T00:29:18.871Z,1025.94
2019-05-13T00:30:18.869Z,1025.93
2019-05-13T00:31:18.852Z,1026.00
2019-05-13T00:32:18.882Z,1026.00
2019-05-13T00:33:18.838Z,1026.04
2019-05-13T00:34:18.820Z,1026.02
2019-05-13T00:35:18.810Z,1026.05
2019-05-13T00:36:18.800Z,1026.05
2019-05-13T00:37:18.791Z,1026.06
2019-05-13T00:38:18.831Z,1026.07
2019-05-13T00:39:18.769Z,1026.05
2019-05-13T00:40:18.759Z,1026.05
2019-05-13T00:41:18.747Z,1026.07
2019-05-13T00:42:19.020Z,1026.10
2019-05-13T00:43:18.721Z,1026.09
2019-05-13T00:44:18.769Z,1026.07
2019-05-13T00:45:18.819Z,1026.08
2019-05-13T00:46:18.718Z,1026.09
2019-05-13T00:47:18.679Z,1026.09
2019-05-13T00:48:18.671Z,1026.15
2019-05-13T00:49:18.938Z,1026.13
2019-05-13T00:50:19.177Z,1026.14
2019-05-13T00:51:18.644Z,1026.09
2019-05-13T00:52:18.638Z,1026.09
2019-05-13T00:53:18.619Z,1026.09
2019-05-13T00:54:18.608Z,1026.05
2019-05-13T00:55:18.878Z,1026.04
2019-05-13T00:56:18.628Z,1026.00
2019-05-13T00:57:18.577Z,1026.03
2019-05-13T00:58:18.584Z,1026.05
2019-05-13T00:59:18.572Z,1026.02
2019-05-13T01:00:18.550Z,1026.02
2019-05-13T01:01:18.529Z,1026.05
2019-05-13T01:02:18.559Z,1026.01
2019-05-13T01:03:19.219Z,1026.01
2019-05-13T01:04:18.500Z,1026.00
2019-05-13T01:05:18.496Z,1025.99
2019-05-13T01:06:18.487Z,1026.01
2019-05-13T01:07:25.935Z,1025.98
2019-05-13T01:08:19.501Z,1026.06
2019-05-13T01:09:18.454Z,1026.05
2019-05-13T01:10:18.438Z,1026.05
2019-05-13T01:11:18.432Z,1026.07
2019-05-13T01:12:18.419Z,1026.11
2019-05-13T01:13:18.409Z,1026.04
2019-05-13T01:14:18.461Z,1026.08
2019-05-13T01:15:18.398Z,1026.11
2019-05-13T01:16:18.376Z,1026.07
2019-05-13T01:17:18.367Z,1026.07
2019-05-13T01:18:18.358Z,1026.09
2019-05-13T01:19:18.627Z,1026.14
2019-05-13T01:20:18.385Z,1026.13
2019-05-13T01:21:18.317Z,1026.13
2019-05-13T01:22:18.308Z,1026.19
2019-05-13T01:23:18.303Z,1026.15
2019-05-13T01:24:18.287Z,1026.17
2019-05-13T01:25:18.566Z,1026.22
2019-05-13T01:26:18.334Z,1026.20
2019-05-13T01:27:18.256Z,1026.20
2019-05-13T01:28:18.246Z,1026.18
2019-05-13T01:29:18.235Z,1026.20
2019-05-13T01:30:18.226Z,1026.13
2019-05-13T01:31:18.496Z,1026.21
2019-05-13T01:32:19.088Z,1026.21
2019-05-13T01:33:18.195Z,1026.25
2019-05-13T01:34:18.189Z,1026.21
2019-05-13T01:35:19.035Z,1026.21
2019-05-13T01:36:18.165Z,1026.17
2019-05-13T01:37:18.145Z,1026.21
2019-05-13T01:38:18.455Z,1026.20
2019-05-13T01:39:18.132Z,1026.19
2019-05-13T01:40:18.123Z,1026.17
2019-05-13T01:41:18.103Z,1026.18
2019-05-13T01:42:18.094Z,1026.19
2019-05-13T01:43:18.084Z,1026.18
2019-05-13T01:44:18.133Z,1026.13
2019-05-13T01:45:18.353Z,1026.13
2019-05-13T01:46:18.054Z,1026.11
2019-05-13T01:47:18.043Z,1026.07
2019-05-13T01:48:18.033Z,1026.11
2019-05-13T01:49:18.701Z,1026.13
2019-05-13T01:50:18.063Z,1026.11
2019-05-13T01:51:18.001Z,1026.08
2019-05-13T01:52:18.272Z,1026.09
2019-05-13T01:53:17.982Z,1026.09
2019-05-13T01:54:17.970Z,1026.07
2019-05-13T01:55:17.961Z,1026.07
2019-05-13T01:56:17.981Z,1026.07
2019-05-13T01:57:17.933Z,1026.10
2019-05-13T01:58:17.932Z,1026.03
2019-05-13T01:59:18.191Z,1026.06
2019-05-13T02:01:40.173Z,1026.05
2019-05-13T02:02:40.064Z,1026.05
2019-05-13T02:03:40.061Z,1026.09
2019-05-13T02:04:40.043Z,1026.07
2019-05-13T02:05:40.024Z,1026.09
2019-05-13T02:06:40.031Z,1026.09
2019-05-13T02:07:56.540Z,1026.10
2019-05-13T02:08:40.992Z,1026.10
2019-05-13T02:09:39.982Z,1026.11
2019-05-13T02:10:39.976Z,1026.10
2019-05-13T02:11:39.971Z,1026.11
2019-05-13T02:12:39.961Z,1026.13
2019-05-13T02:13:39.991Z,1026.10
2019-05-13T02:14:40.211Z,1026.08
2019-05-13T02:15:39.921Z,1026.08
2019-05-13T02:16:39.911Z,1026.06
2019-05-13T02:17:39.910Z,1026.02
2019-05-13T02:18:39.890Z,1026.00
2019-05-13T02:19:39.930Z,1026.04
2019-05-13T02:20:39.869Z,1025.96
2019-05-13T02:21:40.160Z,1026.01
2019-05-13T02:22:39.849Z,1026.04
2019-05-13T02:23:39.839Z,1026.05
2019-05-13T02:24:39.832Z,1026.05
2019-05-13T02:25:39.889Z,1026.02
2019-05-13T02:26:39.811Z,1026.07
2019-05-13T02:27:39.797Z,1026.05
2019-05-13T02:28:40.076Z,1026.05
2019-05-13T02:29:39.768Z,1026.09
2019-05-13T02:30:39.771Z,1026.07
2019-05-13T02:31:46.522Z,1026.11
2019-05-13T02:32:42.843Z,1026.15
2019-05-13T02:33:42.180Z,1026.16
2019-05-13T02:34:43.338Z,1026.23
2019-05-13T02:35:43.097Z,1026.27
2019-05-13T02:36:43.630Z,1026.31
2019-05-13T02:37:43.215Z,1026.36
2019-05-13T02:38:42.496Z,1026.37
2019-05-13T02:39:42.562Z,1026.38
2019-05-13T02:40:42.864Z,1026.37
2019-05-13T02:41:42.901Z,1026.40
2019-05-13T02:42:43.242Z,1026.41
2019-05-13T02:43:42.171Z,1026.39
2019-05-13T02:44:43.473Z,1026.46
2019-05-13T02:45:42.671Z,1026.46
2019-05-13T02:46:39.878Z,1026.48
2019-05-13T02:47:39.586Z,1026.44
2019-05-13T02:48:42.008Z,1026.43
2019-05-13T02:49:42.180Z,1026.44
2019-05-13T02:50:39.545Z,1026.44
2019-05-13T02:51:42.612Z,1026.42
2019-05-13T02:52:39.525Z,1026.39
2019-05-13T02:53:39.525Z,1026.43
2019-05-13T02:54:42.447Z,1026.38
2019-05-13T02:55:43.430Z,1026.38
2019-05-13T02:56:42.211Z,1026.37
2019-05-13T02:57:43.249Z,1026.38
2019-05-13T02:58:42.820Z,1026.41
2019-05-13T02:59:42.035Z,1026.37
2019-05-13T03:00:39.452Z,1026.37
2019-05-13T03:01:39.493Z,1026.42
2019-05-13T03:02:39.434Z,1026.40
2019-05-13T03:03:39.413Z,1026.42
2019-05-13T03:04:43.093Z,1026.44
2019-05-13T03:05:42.622Z,1026.39
2019-05-13T03:06:39.383Z,1026.37
2019-05-13T03:07:42.793Z,1026.40
2019-05-13T03:08:49.160Z,1026.43
2019-05-13T03:09:42.234Z,1026.49
2019-05-13T03:10:43.437Z,1026.45
2019-05-13T03:11:42.335Z,1026.49
2019-05-13T03:12:41.621Z,1026.51
2019-05-13T03:13:42.564Z,1026.51
2019-05-13T03:14:45.062Z,1026.53
2019-05-13T03:15:42.672Z,1026.53
2019-05-13T03:16:39.276Z,1026.55
2019-05-13T03:17:39.262Z,1026.54
2019-05-13T03:18:39.251Z,1026.52
2019-05-13T03:19:39.302Z,1026.50
2019-05-13T03:20:39.231Z,1026.55
2019-05-13T03:21:39.221Z,1026.57
2019-05-13T03:22:43.104Z,1026.59
2019-05-13T03:23:39.203Z,1026.56
2019-05-13T03:24:39.210Z,1026.67
2019-05-13T03:25:39.210Z,1026.68
2019-05-13T03:26:42.524Z,1026.67
2019-05-13T03:27:39.160Z,1026.68
2019-05-13T03:28:39.185Z,1026.70
2019-05-13T03:29:39.432Z,1026.75
2019-05-13T03:30:39.131Z,1026.76
2019-05-13T03:31:45.562Z,1026.77
2019-05-13T03:32:46.091Z,1026.75
2019-05-13T03:33:45.265Z,1026.75
2019-05-13T03:34:44.643Z,1026.74
2019-05-13T03:35:45.768Z,1026.76
2019-05-13T03:36:45.512Z,1026.79
2019-05-13T03:37:42.414Z,1026.74
2019-05-13T03:38:58.236Z,1026.74
2019-05-13T03:39:43.173Z,1026.79
2019-05-13T03:40:42.200Z,1026.77
2019-05-13T03:41:42.075Z,1026.83
2019-05-13T03:42:42.299Z,1026.77
2019-05-13T03:43:42.688Z,1026.79
2019-05-13T03:44:38.977Z,1026.77
2019-05-13T03:45:38.980Z,1026.79
2019-05-13T03:46:42.324Z,1026.76
2019-05-13T03:47:42.007Z,1026.81
2019-05-13T03:48:42.479Z,1026.80
2019-05-13T03:49:38.923Z,1026.83
2019-05-13T03:50:39.189Z,1026.83
2019-05-13T03:51:38.906Z,1026.86
2019-05-13T03:52:38.885Z,1026.83
2019-05-13T03:53:38.875Z,1026.87
2019-05-13T03:54:43.351Z,1026.84
2019-05-13T03:55:38.855Z,1026.91
2019-05-13T03:56:38.854Z,1026.89
2019-05-13T03:57:42.350Z,1026.88
2019-05-13T03:58:38.823Z,1026.89
2019-05-13T03:59:38.815Z,1026.88
2019-05-13T04:00:38.834Z,1026.91
2019-05-13T04:01:38.794Z,1026.94
2019-05-13T04:02:38.784Z,1026.89
2019-05-13T04:03:38.814Z,1026.92
2019-05-13T04:04:42.017Z,1026.91
2019-05-13T04:05:38.755Z,1026.90
2019-05-13T04:06:38.814Z,1026.92
2019-05-13T04:07:38.734Z,1026.87
2019-05-13T04:08:38.712Z,1026.87
2019-05-13T04:09:42.157Z,1026.87
2019-05-13T04:10:41.931Z,1026.87
2019-05-13T04:11:38.694Z,1026.84
2019-05-13T04:12:41.752Z,1026.81
2019-05-13T04:13:38.663Z,1026.83
2019-05-13T04:14:38.652Z,1026.82
2019-05-13T04:15:38.649Z,1026.88
2019-05-13T04:16:38.926Z,1026.89
2019-05-13T04:17:38.631Z,1026.86
2019-05-13T04:18:38.660Z,1026.86
2019-05-13T04:19:38.606Z,1026.87
2019-05-13T04:20:38.599Z,1026.90
2019-05-13T04:21:38.579Z,1026.91
2019-05-13T04:22:38.572Z,1026.91
2019-05-13T04:23:38.563Z,1026.93
2019-05-13T04:24:38.682Z,1026.91
2019-05-13T04:25:39.743Z,1026.94
2019-05-13T04:26:43.011Z,1026.97
2019-05-13T04:27:38.520Z,1026.95
2019-05-13T04:28:38.789Z,1027.00
2019-05-13T04:29:38.502Z,1026.95
2019-05-13T04:30:38.554Z,1026.97
2019-05-13T04:31:38.488Z,1026.97
2019-05-13T04:32:38.468Z,1026.95
2019-05-13T04:33:38.468Z,1026.95
2019-05-13T04:34:38.448Z,1027.03
2019-05-13T04:35:38.429Z,1027.02
2019-05-13T04:36:38.468Z,1027.06
2019-05-13T04:37:38.408Z,1027.07
2019-05-13T04:38:38.404Z,1027.09
2019-05-13T04:39:47.780Z,1027.06
2019-05-13T04:40:42.319Z,1027.07
2019-05-13T04:41:38.388Z,1027.04
2019-05-13T04:42:38.427Z,1027.06
2019-05-13T04:43:42.957Z,1027.10
2019-05-13T04:44:38.336Z,1027.13
2019-05-13T04:45:38.820Z,1027.13
2019-05-13T04:46:43.081Z,1027.14
2019-05-13T04:47:38.319Z,1027.15
2019-05-13T04:48:40.497Z,1027.14
2019-05-13T04:49:42.602Z,1027.16
2019-05-13T04:50:38.275Z,1027.21
2019-05-13T04:51:42.103Z,1027.21
2019-05-13T04:52:38.261Z,1027.21
2019-05-13T04:53:38.243Z,1027.20
2019-05-13T04:54:38.276Z,1027.21
2019-05-13T04:55:38.218Z,1027.19
2019-05-13T04:56:38.216Z,1027.20
2019-05-13T04:57:38.203Z,1027.21
2019-05-13T04:58:38.483Z,1027.16
2019-05-13T04:59:41.397Z,1027.15
2019-05-13T05:00:42.300Z,1027.14
2019-05-13T05:01:40.200Z,1027.12
2019-05-13T05:02:46.059Z,1027.13
2019-05-13T05:03:42.062Z,1027.17
2019-05-13T05:04:39.135Z,1027.13
2019-05-13T05:05:38.570Z,1027.15
2019-05-13T05:06:38.143Z,1027.17
2019-05-13T05:07:38.115Z,1027.15
2019-05-13T05:08:38.110Z,1027.20
2019-05-13T05:09:42.864Z,1027.18
2019-05-13T05:10:42.068Z,1027.18
2019-05-13T05:11:38.062Z,1027.16
2019-05-13T05:12:38.405Z,1027.17
2019-05-13T05:13:38.045Z,1027.20
2019-05-13T05:14:38.041Z,1027.21
2019-05-13T05:15:38.064Z,1027.30
2019-05-13T05:16:42.043Z,1027.31
2019-05-13T05:17:39.326Z,1027.29
2019-05-13T05:18:37.993Z,1027.27
2019-05-13T05:19:38.841Z,1027.26
2019-05-13T05:20:37.972Z,1027.27
2019-05-13T05:21:37.941Z,1027.28
2019-05-13T05:22:37.961Z,1027.32
2019-05-13T05:23:38.651Z,1027.30
2019-05-13T05:24:37.931Z,1027.33
2019-05-13T05:25:41.491Z,1027.33
2019-05-13T05:26:37.909Z,1027.38
2019-05-13T05:27:37.898Z,1027.35
2019-05-13T05:28:37.872Z,1027.34
2019-05-13T05:29:38.449Z,1027.39
2019-05-13T05:30:37.840Z,1027.38
2019-05-13T05:31:38.128Z,1027.35
2019-05-13T05:32:37.827Z,1027.36
2019-05-13T05:33:37.819Z,1027.32
2019-05-13T05:34:37.818Z,1027.34
2019-05-13T05:35:37.837Z,1027.33
2019-05-13T05:36:37.790Z,1027.38
2019-05-13T05:37:37.798Z,1027.39
2019-05-13T05:38:38.202Z,1027.37
2019-05-13T05:39:37.751Z,1027.42
2019-05-13T05:40:37.759Z,1027.37
2019-05-13T05:41:37.788Z,1027.39
2019-05-13T05:42:37.728Z,1027.43
2019-05-13T05:43:37.708Z,1027.47
2019-05-13T05:44:37.726Z,1027.51
2019-05-13T05:45:37.688Z,1027.49
2019-05-13T05:46:37.698Z,1027.47
2019-05-13T05:47:38.078Z,1027.47
2019-05-13T05:48:37.679Z,1027.46
2019-05-13T05:49:37.648Z,1027.44
2019-05-13T05:50:37.667Z,1027.47
2019-05-13T05:51:37.628Z,1027.44
2019-05-13T05:52:37.640Z,1027.50
2019-05-13T05:53:38.437Z,1027.49
2019-05-13T05:54:37.622Z,1027.45
2019-05-13T05:55:37.593Z,1027.42
2019-05-13T05:56:37.863Z,1027.45
2019-05-13T05:57:37.564Z,1027.41
2019-05-13T05:58:37.557Z,1027.46
2019-05-13T05:59:37.596Z,1027.45
2019-05-13T06:00:37.553Z,1027.44
2019-05-13T06:01:37.582Z,1027.46
2019-05-13T06:02:37.551Z,1027.41
2019-05-13T06:03:37.516Z,1027.42
2019-05-13T06:04:37.487Z,1027.43
2019-05-13T06:05:37.506Z,1027.43
2019-05-13T06:06:37.472Z,1027.40
2019-05-13T06:07:37.459Z,1027.41
2019-05-13T06:08:37.724Z,1027.38
2019-05-13T06:09:37.468Z,1027.40
2019-05-13T06:10:49.609Z,1027.37
2019-05-13T06:11:38.493Z,1027.35
2019-05-13T06:12:37.399Z,1027.35
2019-05-13T06:13:37.883Z,1027.35
2019-05-13T06:14:37.384Z,1027.35
2019-05-13T06:15:37.390Z,1027.36
2019-05-13T06:16:37.373Z,1027.34
2019-05-13T06:17:40.683Z,1027.39
2019-05-13T06:18:37.337Z,1027.37
2019-05-13T06:19:37.903Z,1027.40
2019-05-13T06:20:37.605Z,1027.37
2019-05-13T06:21:37.310Z,1027.38
2019-05-13T06:22:37.292Z,1027.35
2019-05-13T06:23:38.172Z,1027.38
2019-05-13T06:24:37.301Z,1027.37
2019-05-13T06:25:37.265Z,1027.39
2019-05-13T06:26:37.262Z,1027.37
2019-05-13T06:27:37.251Z,1027.39
2019-05-13T06:28:37.232Z,1027.42
2019-05-13T06:29:37.290Z,1027.41
2019-05-13T06:30:37.230Z,1027.41
2019-05-13T06:31:37.204Z,1027.48
2019-05-13T06:32:37.234Z,1027.46
2019-05-13T06:33:37.643Z,1027.43
2019-05-13T06:34:37.171Z,1027.40
2019-05-13T06:35:37.214Z,1027.40
2019-05-13T06:36:37.162Z,1027.42
2019-05-13T06:37:37.139Z,1027.35
2019-05-13T06:38:37.130Z,1027.37
2019-05-13T06:39:37.144Z,1027.34
2019-05-13T06:40:37.479Z,1027.37
2019-05-13T06:41:37.152Z,1027.40
2019-05-13T06:42:37.132Z,1027.39
2019-05-13T06:43:37.104Z,1027.38
2019-05-13T06:44:37.069Z,1027.40
2019-05-13T06:45:37.049Z,1027.40
2019-05-13T06:46:37.039Z,1027.42
2019-05-13T06:47:37.120Z,1027.40
2019-05-13T06:48:37.840Z,1027.37
2019-05-13T06:49:37.019Z,1027.40
2019-05-13T06:50:37.838Z,1027.42
2019-05-13T06:51:37.012Z,1027.41
2019-05-13T06:52:36.988Z,1027.36
2019-05-13T06:53:37.340Z,1027.33
2019-05-13T06:54:36.959Z,1027.37
2019-05-13T06:55:36.946Z,1027.35
2019-05-13T06:56:38.017Z,1027.40
2019-05-13T06:57:38.978Z,1027.32
2019-05-13T06:58:36.919Z,1027.34
2019-05-13T06:59:36.947Z,1027.31
2019-05-13T07:00:36.969Z,1027.35
2019-05-13T07:01:37.391Z,1027.34
2019-05-13T07:02:36.878Z,1027.34
2019-05-13T07:03:36.877Z,1027.34
2019-05-13T07:04:37.388Z,1027.31
2019-05-13T07:05:36.906Z,1027.31
2019-05-13T07:06:37.108Z,1027.35
2019-05-13T07:07:36.854Z,1027.30
2019-05-13T07:08:36.806Z,1027.38
2019-05-13T07:09:36.844Z,1027.38
2019-05-13T07:10:36.802Z,1027.32
2019-05-13T07:11:36.844Z,1027.35
2019-05-13T07:12:36.783Z,1027.39
2019-05-13T07:13:36.756Z,1027.36
2019-05-13T07:14:36.746Z,1027.41
2019-05-13T07:15:36.755Z,1027.36
2019-05-13T07:16:36.732Z,1027.41
2019-05-13T07:17:36.765Z,1027.34
2019-05-13T07:18:37.725Z,1027.35
2019-05-13T07:19:36.706Z,1027.35
2019-05-13T07:20:36.790Z,1027.34
2019-05-13T07:21:36.845Z,1027.27
2019-05-13T07:22:36.673Z,1027.34
2019-05-13T07:23:37.782Z,1027.25
2019-05-13T07:24:36.640Z,1027.29
2019-05-13T07:25:36.633Z,1027.35
2019-05-13T07:26:37.355Z,1027.29
2019-05-13T07:27:36.673Z,1027.24
2019-05-13T07:28:36.611Z,1027.29
2019-05-13T07:29:36.730Z,1027.29
2019-05-13T07:30:37.343Z,1027.21
2019-05-13T07:31:36.945Z,1027.26
2019-05-13T07:32:36.775Z,1027.24
2019-05-13T07:33:36.759Z,1027.23
2019-05-13T07:34:37.083Z,1027.26
2019-05-13T07:35:38.182Z,1027.26
2019-05-13T07:36:36.515Z,1027.25
2019-05-13T07:37:36.494Z,1027.28
2019-05-13T07:38:36.484Z,1027.26
2019-05-13T07:39:36.493Z,1027.21
2019-05-13T07:40:37.123Z,1027.27
2019-05-13T07:41:39.593Z,1027.24
2019-05-13T07:42:37.763Z,1027.21
2019-05-13T07:43:36.434Z,1027.23
2019-05-13T07:44:36.591Z,1027.21
2019-05-13T07:45:36.483Z,1027.17
2019-05-13T07:46:36.564Z,1027.14
2019-05-13T07:47:37.159Z,1027.24
2019-05-13T07:48:37.380Z,1027.22
2019-05-13T07:49:36.382Z,1027.22
2019-05-13T07:50:51.501Z,1027.25
2019-05-13T07:51:37.372Z,1027.24
2019-05-13T07:52:36.933Z,1027.26
2019-05-13T07:53:36.378Z,1027.23
2019-05-13T07:54:36.608Z,1027.23
2019-05-13T07:55:36.311Z,1027.19
2019-05-13T07:56:36.806Z,1027.27
2019-05-13T07:57:36.284Z,1027.15
2019-05-13T07:58:37.554Z,1027.26
2019-05-13T07:59:36.314Z,1027.31
2019-05-13T08:00:36.423Z,1027.28
2019-05-13T08:01:36.281Z,1027.28
2019-05-13T08:02:36.230Z,1027.29
2019-05-13T08:03:37.118Z,1027.28
2019-05-13T08:04:37.106Z,1027.26
2019-05-13T08:05:37.055Z,1027.31
2019-05-13T08:06:36.192Z,1027.24
2019-05-13T08:07:36.663Z,1027.25
2019-05-13T08:08:36.173Z,1027.21
2019-05-13T08:09:36.153Z,1027.25
2019-05-13T08:10:37.061Z,1027.22
2019-05-13T08:11:53.601Z,1027.22
2019-05-13T08:12:37.185Z,1027.21
2019-05-13T08:13:36.123Z,1027.19
2019-05-13T08:14:36.482Z,1027.19
2019-05-13T08:15:36.168Z,1027.22
2019-05-13T08:16:36.083Z,1027.15
2019-05-13T08:17:36.612Z,1027.13
2019-05-13T08:18:36.099Z,1027.17
2019-05-13T08:19:36.062Z,1027.26
2019-05-13T08:20:36.494Z,1027.18
2019-05-13T08:21:36.502Z,1027.20
2019-05-13T08:22:36.021Z,1027.22
2019-05-13T08:23:36.051Z,1027.18
2019-05-13T08:24:36.009Z,1027.13
2019-05-13T08:25:36.029Z,1027.14
2019-05-13T08:26:38.121Z,1027.18
2019-05-13T08:27:37.537Z,1027.15
2019-05-13T08:28:36.262Z,1027.11
2019-05-13T08:29:36.531Z,1027.10
2019-05-13T08:30:36.761Z,1027.11
2019-05-13T08:31:36.322Z,1027.12
2019-05-13T08:32:37.692Z,1027.14
2019-05-13T08:33:36.750Z,1027.13
2019-05-13T08:34:36.882Z,1027.17
2019-05-13T08:35:37.698Z,1027.17
2019-05-13T08:36:39.314Z,1027.14
2019-05-13T08:37:35.864Z,1027.12
2019-05-13T08:38:35.859Z,1027.16
2019-05-13T08:39:38.315Z,1027.17
2019-05-13T08:40:35.834Z,1027.12
2019-05-13T08:41:35.884Z,1027.13
2019-05-13T08:42:35.821Z,1027.12
2019-05-13T08:43:35.801Z,1027.09
2019-05-13T08:44:35.845Z,1027.09
2019-05-13T08:45:35.781Z,1027.11
2019-05-13T08:46:35.809Z,1027.13
2019-05-13T08:47:35.809Z,1027.14
2019-05-13T08:48:35.731Z,1027.09
2019-05-13T08:49:35.743Z,1027.19
2019-05-13T08:50:36.911Z,1027.18
2019-05-13T08:51:35.807Z,1027.12
2019-05-13T08:52:35.702Z,1027.12
2019-05-13T08:53:36.573Z,1027.15
2019-05-13T08:54:36.085Z,1027.16
2019-05-13T08:55:35.691Z,1027.12
2019-05-13T08:56:35.648Z,1027.09
2019-05-13T08:57:35.712Z,1027.12
2019-05-13T08:58:35.688Z,1027.09
2019-05-13T08:59:35.668Z,1027.12
2019-05-13T09:00:36.102Z,1027.09
2019-05-13T09:01:35.591Z,1027.08
2019-05-13T09:02:35.582Z,1027.11
2019-05-13T09:03:35.572Z,1027.11
2019-05-13T09:04:35.585Z,1027.14
2019-05-13T09:05:35.609Z,1027.13
2019-05-13T09:06:35.561Z,1027.10
2019-05-13T09:07:35.531Z,1027.05
2019-05-13T09:08:35.513Z,1027.03
2019-05-13T09:09:35.511Z,1027.02
2019-05-13T09:10:35.539Z,1027.06
2019-05-13T09:11:35.550Z,1027.04
2019-05-13T09:12:38.317Z,1027.04
2019-05-13T09:13:35.493Z,1027.03
2019-05-13T09:14:35.451Z,1027.05
2019-05-13T09:15:35.601Z,1027.03
2019-05-13T09:16:35.438Z,1027.07
2019-05-13T09:17:36.499Z,1027.03
2019-05-13T09:18:35.421Z,1027.07
2019-05-13T09:19:35.436Z,1027.05
2019-05-13T09:20:35.432Z,1027.06
2019-05-13T09:21:35.783Z,1027.04
2019-05-13T09:22:35.370Z,1027.05
2019-05-13T09:23:35.404Z,1026.99
2019-05-13T09:24:37.736Z,1027.06
2019-05-13T09:25:35.407Z,1027.02
2019-05-13T09:26:36.209Z,1027.06
2019-05-13T09:27:35.340Z,1027.04
2019-05-13T09:28:35.310Z,1027.03
2019-05-13T09:29:36.230Z,1027.08
2019-05-13T09:30:36.652Z,1027.03
2019-05-13T09:31:35.271Z,1027.02
2019-05-13T09:32:35.557Z,1027.05
2019-05-13T09:33:35.288Z,1027.07
2019-05-13T09:34:35.241Z,1027.05
2019-05-13T09:35:35.284Z,1027.02
2019-05-13T09:36:36.196Z,1027.06
2019-05-13T09:37:35.717Z,1027.05
2019-05-13T09:38:35.444Z,1026.99
2019-05-13T09:39:35.557Z,1026.99
2019-05-13T09:40:35.246Z,1027.04
2019-05-13T09:41:40.834Z,1027.02
2019-05-13T09:42:48.181Z,1026.98
2019-05-13T09:43:36.170Z,1026.93
2019-05-13T09:44:35.533Z,1027.02
2019-05-13T09:45:35.212Z,1027.02
2019-05-13T09:46:35.292Z,1026.99
2019-05-13T09:47:36.492Z,1027.02
2019-05-13T09:48:37.122Z,1027.00
2019-05-13T09:49:35.232Z,1027.02
2019-05-13T09:50:36.343Z,1026.98
2019-05-13T09:51:35.692Z,1026.99
2019-05-13T09:52:39.599Z,1026.99
2019-05-13T09:53:35.081Z,1027.01
2019-05-13T09:54:35.641Z,1026.94
2019-05-13T09:55:35.473Z,1027.00
2019-05-13T09:56:35.617Z,1027.02
2019-05-13T09:57:35.612Z,1026.95
2019-05-13T09:58:35.350Z,1026.96
2019-05-13T09:59:35.065Z,1026.97
2019-05-13T10:00:35.171Z,1026.94
2019-05-13T10:01:34.952Z,1026.97
2019-05-13T10:02:35.559Z,1026.94
2019-05-13T10:03:51.969Z,1026.95
2019-05-13T10:04:36.042Z,1026.97
2019-05-13T10:05:35.315Z,1026.87
2019-05-13T10:06:35.171Z,1026.88
2019-05-13T10:07:35.701Z,1026.91
2019-05-13T10:08:34.883Z,1026.95
2019-05-13T10:09:34.866Z,1026.94
2019-05-13T10:10:34.931Z,1026.91
2019-05-13T10:11:35.213Z,1026.94
2019-05-13T10:12:34.832Z,1026.95
2019-05-13T10:13:34.863Z,1026.94
2019-05-13T10:14:34.884Z,1026.94
2019-05-13T10:15:34.844Z,1026.97
2019-05-13T10:16:34.977Z,1026.98
2019-05-13T10:17:35.612Z,1026.96
2019-05-13T10:18:35.261Z,1026.87
2019-05-13T10:19:34.772Z,1026.99
2019-05-13T10:20:34.744Z,1026.92
2019-05-13T10:21:34.744Z,1026.93
2019-05-13T10:22:34.794Z,1026.90
2019-05-13T10:23:34.742Z,1026.88
2019-05-13T10:24:34.713Z,1026.91
2019-05-13T10:25:35.115Z,1026.92
2019-05-13T10:26:34.751Z,1026.89
2019-05-13T10:27:35.650Z,1026.84
2019-05-13T10:28:34.694Z,1026.84
2019-05-13T10:29:35.581Z,1026.83
2019-05-13T10:30:37.345Z,1026.92
2019-05-13T10:31:34.639Z,1026.90
2019-05-13T10:32:35.249Z,1026.94
2019-05-13T10:33:34.625Z,1026.96
2019-05-13T10:34:34.665Z,1026.89
2019-05-13T10:35:34.596Z,1026.83
2019-05-13T10:36:35.473Z,1026.86
2019-05-13T10:37:35.078Z,1026.81
2019-05-13T10:38:34.627Z,1026.85
2019-05-13T10:39:34.639Z,1026.80
2019-05-13T10:40:34.719Z,1026.79
2019-05-13T10:41:34.660Z,1026.80
2019-05-13T10:42:34.546Z,1026.73
2019-05-13T10:43:40.231Z,1026.76
2019-05-13T10:44:35.507Z,1026.73
2019-05-13T10:45:34.547Z,1026.76
2019-05-13T10:46:34.550Z,1026.79
2019-05-13T10:47:34.486Z,1026.71
2019-05-13T10:48:34.446Z,1026.77
2019-05-13T10:49:34.906Z,1026.74
2019-05-13T10:50:34.946Z,1026.73
2019-05-13T10:51:34.427Z,1026.74
2019-05-13T10:52:35.247Z,1026.82
2019-05-13T10:53:35.216Z,1026.77
2019-05-13T10:54:35.207Z,1026.70
2019-05-13T10:55:34.529Z,1026.69
2019-05-13T10:56:34.586Z,1026.69
2019-05-13T10:57:34.670Z,1026.69
2019-05-13T10:58:34.991Z,1026.70
2019-05-13T10:59:35.739Z,1026.69
2019-05-13T11:00:34.647Z,1026.68
2019-05-13T11:01:34.686Z,1026.66
2019-05-13T11:02:35.524Z,1026.63
2019-05-13T11:03:35.095Z,1026.62
2019-05-13T11:04:34.318Z,1026.61
2019-05-13T11:05:34.274Z,1026.55
2019-05-13T11:06:34.272Z,1026.51
2019-05-13T11:07:36.279Z,1026.51
2019-05-13T11:08:34.238Z,1026.51
2019-05-13T11:09:34.920Z,1026.51
2019-05-13T11:10:34.387Z,1026.55
2019-05-13T11:11:34.409Z,1026.54
2019-05-13T11:12:36.183Z,1026.55
2019-05-13T11:13:52.274Z,1026.58
2019-05-13T11:14:42.171Z,1026.57
2019-05-13T11:15:41.128Z,1026.57
2019-05-13T11:16:35.229Z,1026.50
2019-05-13T11:17:34.405Z,1026.49
2019-05-13T11:18:34.155Z,1026.48
2019-05-13T11:19:36.922Z,1026.51
2019-05-13T11:20:35.429Z,1026.53
2019-05-13T11:21:34.180Z,1026.50
2019-05-13T11:22:34.715Z,1026.46
2019-05-13T11:23:35.147Z,1026.48
2019-05-13T11:24:34.079Z,1026.47
2019-05-13T11:25:36.195Z,1026.48
2019-05-13T11:26:36.334Z,1026.45
2019-05-13T11:27:34.466Z,1026.48
2019-05-13T11:28:34.442Z,1026.45
2019-05-13T11:29:34.024Z,1026.43
2019-05-13T11:30:34.811Z,1026.45
2019-05-13T11:31:34.523Z,1026.44
2019-05-13T11:32:37.011Z,1026.36
2019-05-13T11:33:34.762Z,1026.35
2019-05-13T11:34:34.010Z,1026.30
2019-05-13T11:35:34.803Z,1026.23
2019-05-13T11:36:33.945Z,1026.35
2019-05-13T11:37:33.972Z,1026.36
2019-05-13T11:38:34.338Z,1026.33
2019-05-13T11:39:33.918Z,1026.34
2019-05-13T11:40:34.173Z,1026.35
2019-05-13T11:41:34.823Z,1026.32
2019-05-13T11:42:34.132Z,1026.15
2019-05-13T11:43:33.893Z,1026.20
2019-05-13T11:44:34.339Z,1026.29
2019-05-13T11:45:33.852Z,1026.26
2019-05-13T11:46:33.906Z,1026.20
2019-05-13T11:47:34.065Z,1026.21
2019-05-13T11:48:33.833Z,1026.20
2019-05-13T11:49:34.206Z,1026.14
2019-05-13T11:50:34.536Z,1026.16
2019-05-13T11:51:33.893Z,1026.10
2019-05-13T11:52:35.863Z,1026.11
2019-05-13T11:53:37.168Z,1026.08
2019-05-13T11:54:33.763Z,1026.16
2019-05-13T11:55:33.765Z,1026.15
2019-05-13T11:56:33.973Z,1026.15
2019-05-13T11:57:33.728Z,1026.05
2019-05-13T11:58:33.878Z,1026.10
2019-05-13T11:59:33.704Z,1026.11
2019-05-13T12:00:33.713Z,1026.16
2019-05-13T12:01:34.081Z,1026.14
2019-05-13T12:02:33.694Z,1026.18
2019-05-13T12:03:33.655Z,1026.04
2019-05-13T12:04:34.841Z,1026.07
2019-05-13T12:05:34.082Z,1026.06
2019-05-13T12:06:34.300Z,1026.05